sensor_id;sensor_type;location;lat;lon;timestamp;pressure;altitude;pressure_sealevel;temperature;humidity
55187;BME280;55457;52.002;5.464;2022-12-18T00:03:50;102601.16;;;20.53;35.11
55187;BME280;55457;52.002;5.464;2022-12-18T00:06:16;102597.41;;;20.54;35.00
55187;BME280;55457;52.002;5.464;2022-12-18T00:08:43;102593.03;;;20.53;35.19
55187;BME280;55457;52.002;5.464;2022-12-18T00:11:12;102579.47;;;20.53;35.16
55187;BME280;55457;52.002;5.464;2022-12-18T00:13:37;102575.72;;;20.54;35.07
55187;BME280;55457;52.002;5.464;2022-12-18T00:16:04;102562.41;;;20.53;34.82
55187;BME280;55457;52.002;5.464;2022-12-18T00:18:30;102563.22;;;20.53;34.92
55187;BME280;55457;52.002;5.464;2022-12-18T00:20:59;102554.06;;;20.54;34.93
55187;BME280;55457;52.002;5.464;2022-12-18T00:23:25;102545.31;;;20.52;34.82
55187;BME280;55457;52.002;5.464;2022-12-18T00:25:51;102548.03;;;20.52;35.06
55187;BME280;55457;52.002;5.464;2022-12-18T00:28:16;102557.81;;;20.53;35.01
55187;BME280;55457;52.002;5.464;2022-12-18T00:30:41;102550.72;;;20.52;34.95
55187;BME280;55457;52.002;5.464;2022-12-18T00:33:07;102557.81;;;20.53;35.05
55187;BME280;55457;52.002;5.464;2022-12-18T00:35:32;102561.13;;;20.55;34.81
55187;BME280;55457;52.002;5.464;2022-12-18T00:37:57;102559.47;;;20.54;34.71
55187;BME280;55457;52.002;5.464;2022-12-18T00:40:23;102553.84;;;20.56;34.84
55187;BME280;55457;52.002;5.464;2022-12-18T00:42:48;102555.72;;;20.55;34.77
55187;BME280;55457;52.002;5.464;2022-12-18T00:45:27;102557.38;;;20.56;34.98
55187;BME280;55457;52.002;5.464;2022-12-18T00:47:53;102564.28;;;20.59;34.91
55187;BME280;55457;52.002;5.464;2022-12-18T00:50:19;102568.66;;;20.60;34.86
55187;BME280;55457;52.002;5.464;2022-12-18T00:52:45;102558.66;;;20.61;34.77
55187;BME280;55457;52.002;5.464;2022-12-18T00:55:10;102565.75;;;20.62;34.60
55187;BME280;55457;52.002;5.464;2022-12-18T00:57:36;102560.31;;;20.62;34.58
55187;BME280;55457;52.002;5.464;2022-12-18T01:00:03;102562.00;;;20.63;34.47
55187;BME280;55457;52.002;5.464;2022-12-18T01:02:28;102552.84;;;20.64;34.30
55187;BME280;55457;52.002;5.464;2022-12-18T01:04:54;102552.84;;;20.64;34.69
55187;BME280;55457;52.002;5.464;2022-12-18T01:07:19;102557.44;;;20.63;34.63
55187;BME280;55457;52.002;5.464;2022-12-18T01:09:44;102562.00;;;20.63;34.55
55187;BME280;55457;52.002;5.464;2022-12-18T01:12:09;102563.69;;;20.64;34.63
55187;BME280;55457;52.002;5.464;2022-12-18T01:14:36;102555.56;;;20.64;34.48
55187;BME280;55457;52.002;5.464;2022-12-18T01:17:02;102562.63;;;20.65;34.36
55187;BME280;55457;52.002;5.464;2022-12-18T01:19:28;102563.69;;;20.64;34.62
55187;BME280;55457;52.002;5.464;2022-12-18T01:21:54;102556.59;;;20.63;34.57
55187;BME280;55457;52.002;5.464;2022-12-18T01:24:19;102563.69;;;20.64;34.38
55187;BME280;55457;52.002;5.464;2022-12-18T01:26:44;102569.72;;;20.66;34.46
55187;BME280;55457;52.002;5.464;2022-12-18T01:29:10;102571.81;;;20.64;34.48
55187;BME280;55457;52.002;5.464;2022-12-18T01:31:35;102576.19;;;20.65;34.45
55187;BME280;55457;52.002;5.464;2022-12-18T01:34:01;102568.25;;;20.63;34.63
55187;BME280;55457;52.002;5.464;2022-12-18T01:36:32;102569.09;;;20.64;34.53
55187;BME280;55457;52.002;5.464;2022-12-18T01:39:07;102576.19;;;20.65;34.39
55187;BME280;55457;52.002;5.464;2022-12-18T01:41:33;102574.72;;;20.62;34.27
55187;BME280;55457;52.002;5.464;2022-12-18T01:49:53;102584.69;;;20.62;34.30
55187;BME280;55457;52.002;5.464;2022-12-18T01:52:19;102576.56;;;20.62;34.44
55187;BME280;55457;52.002;5.464;2022-12-18T01:54:46;102577.84;;;20.59;34.50
55187;BME280;55457;52.002;5.464;2022-12-18T01:57:13;102574.91;;;20.61;34.38
55187;BME280;55457;52.002;5.464;2022-12-18T01:59:39;102574.91;;;20.61;34.36
55187;BME280;55457;52.002;5.464;2022-12-18T02:02:07;102574.28;;;20.58;34.43
55187;BME280;55457;52.002;5.464;2022-12-18T02:04:32;102574.28;;;20.58;34.37
55187;BME280;55457;52.002;5.464;2022-12-18T02:12:49;102583.25;;;20.59;34.44
55187;BME280;55457;52.002;5.464;2022-12-18T02:15:35;102590.34;;;20.60;34.35
55187;BME280;55457;52.002;5.464;2022-12-18T02:18:11;102587.84;;;20.58;34.45
55187;BME280;55457;52.002;5.464;2022-12-18T02:20:53;102584.28;;;20.58;34.41
55187;BME280;55457;52.002;5.464;2022-12-18T02:26:43;102587.41;;;20.62;34.38
55187;BME280;55457;52.002;5.464;2022-12-18T02:29:14;102577.63;;;20.61;34.33
55187;BME280;55457;52.002;5.464;2022-12-18T02:31:49;102572.19;;;20.61;34.31
55187;BME280;55457;52.002;5.464;2022-12-18T02:34:18;102577.44;;;20.62;34.46
55187;BME280;55457;52.002;5.464;2022-12-18T02:36:45;102575.56;;;20.63;34.30
55187;BME280;55457;52.002;5.464;2022-12-18T02:39:13;102575.75;;;20.61;34.30
55187;BME280;55457;52.002;5.464;2022-12-18T02:41:40;102572.84;;;20.63;34.29
55187;BME280;55457;52.002;5.464;2022-12-18T02:44:09;102572.84;;;20.63;34.32
55187;BME280;55457;52.002;5.464;2022-12-18T02:46:38;102564.50;;;20.64;34.16
55187;BME280;55457;52.002;5.464;2022-12-18T02:58:18;102570.75;;;20.65;34.05
55187;BME280;55457;52.002;5.464;2022-12-18T03:00:56;102563.69;;;20.64;34.12
55187;BME280;55457;52.002;5.464;2022-12-18T03:06:25;102560.97;;;20.64;34.23
55187;BME280;55457;52.002;5.464;2022-12-18T03:08:58;102549.31;;;20.63;34.21
55187;BME280;55457;52.002;5.464;2022-12-18T03:11:25;102532.22;;;20.63;34.01
55187;BME280;55457;52.002;5.464;2022-12-18T03:14:12;102543.88;;;20.63;34.09
55187;BME280;55457;52.002;5.464;2022-12-18T03:16:40;102535.75;;;20.63;34.21
55187;BME280;55457;52.002;5.464;2022-12-18T03:19:11;102536.59;;;20.64;34.20
55187;BME280;55457;52.002;5.464;2022-12-18T03:21:46;102529.50;;;20.63;34.19
55187;BME280;55457;52.002;5.464;2022-12-18T03:24:13;102518.69;;;20.63;34.06
55187;BME280;55457;52.002;5.464;2022-12-18T03:26:42;102521.38;;;20.63;34.23
55187;BME280;55457;52.002;5.464;2022-12-18T03:29:12;102517.84;;;20.62;34.23
55187;BME280;55457;52.002;5.464;2022-12-18T03:31:42;102518.84;;;20.61;34.12
55187;BME280;55457;52.002;5.464;2022-12-18T03:34:16;102512.44;;;20.62;34.17
55187;BME280;55457;52.002;5.464;2022-12-18T03:36:42;102512.59;;;20.61;34.15
55187;BME280;55457;52.002;5.464;2022-12-18T03:39:08;102515.31;;;20.61;34.15
55187;BME280;55457;52.002;5.464;2022-12-18T03:41:48;102516.97;;;20.62;34.17
55187;BME280;55457;52.002;5.464;2022-12-18T03:50:13;102520.72;;;20.61;34.04
55187;BME280;55457;52.002;5.464;2022-12-18T03:55:12;102507.41;;;20.59;34.05
55187;BME280;55457;52.002;5.464;2022-12-18T03:57:38;102498.44;;;20.58;34.21
55187;BME280;55457;52.002;5.464;2022-12-18T04:00:12;102501.16;;;20.58;34.05
55187;BME280;55457;52.002;5.464;2022-12-18T04:02:42;102496.13;;;20.55;34.22
55187;BME280;55457;52.002;5.464;2022-12-18T04:05:09;102489.66;;;20.56;33.98
55187;BME280;55457;52.002;5.464;2022-12-18T04:07:36;102483.25;;;20.57;33.98
55187;BME280;55457;52.002;5.464;2022-12-18T04:10:03;102484.06;;;20.58;34.02
55187;BME280;55457;52.002;5.464;2022-12-18T04:12:29;102485.13;;;20.57;34.00
55187;BME280;55457;52.002;5.464;2022-12-18T04:14:55;102478.84;;;20.56;33.96
55187;BME280;55457;52.002;5.464;2022-12-18T04:17:20;102476.56;;;20.53;33.95
55187;BME280;55457;52.002;5.464;2022-12-18T04:19:46;102471.75;;;20.55;34.04
55187;BME280;55457;52.002;5.464;2022-12-18T04:22:11;102477.19;;;20.55;33.88
55187;BME280;55457;52.002;5.464;2022-12-18T04:24:37;102471.75;;;20.55;33.98
55187;BME280;55457;52.002;5.464;2022-12-18T04:27:02;102470.72;;;20.56;33.99
55187;BME280;55457;52.002;5.464;2022-12-18T04:29:28;102469.03;;;20.55;34.11
55187;BME280;55457;52.002;5.464;2022-12-18T04:31:53;102470.09;;;20.54;33.95
55187;BME280;55457;52.002;5.464;2022-12-18T04:34:19;102476.56;;;20.53;33.98
55187;BME280;55457;52.002;5.464;2022-12-18T04:36:45;102475.50;;;20.54;34.08
55187;BME280;55457;52.002;5.464;2022-12-18T04:39:10;102484.69;;;20.53;33.98
55187;BME280;55457;52.002;5.464;2022-12-18T04:41:36;102487.38;;;20.53;33.97
55187;BME280;55457;52.002;5.464;2022-12-18T04:44:01;102489.44;;;20.51;34.04
55187;BME280;55457;52.002;5.464;2022-12-18T04:46:26;102495.53;;;20.53;33.93
55187;BME280;55457;52.002;5.464;2022-12-18T04:48:52;102499.28;;;20.52;33.98
55187;BME280;55457;52.002;5.464;2022-12-18T04:51:17;102495.91;;;20.50;33.98
55187;BME280;55457;52.002;5.464;2022-12-18T04:53:42;102505.69;;;20.51;34.00
55187;BME280;55457;52.002;5.464;2022-12-18T04:56:10;102498.63;;;20.50;33.95
55187;BME280;55457;52.002;5.464;2022-12-18T04:58:37;102502.38;;;20.49;33.92
55187;BME280;55457;52.002;5.464;2022-12-18T05:01:04;102499.66;;;20.49;34.09
55187;BME280;55457;52.002;5.464;2022-12-18T05:03:29;102509.66;;;20.49;33.91
55187;BME280;55457;52.002;5.464;2022-12-18T05:05:55;102514.25;;;20.48;34.13
55187;BME280;55457;52.002;5.464;2022-12-18T05:08:20;102520.50;;;20.49;33.93
55187;BME280;55457;52.002;5.464;2022-12-18T05:10:46;102519.66;;;20.48;34.06
55187;BME280;55457;52.002;5.464;2022-12-18T05:13:11;102519.88;;;20.47;34.13
55187;BME280;55457;52.002;5.464;2022-12-18T05:15:37;102529.00;;;20.46;34.14
55187;BME280;55457;52.002;5.464;2022-12-18T05:18:02;102529.84;;;20.46;33.90
55187;BME280;55457;52.002;5.464;2022-12-18T05:20:29;102532.75;;;20.45;34.01
55187;BME280;55457;52.002;5.464;2022-12-18T05:22:54;102531.91;;;20.44;33.87
55187;BME280;55457;52.002;5.464;2022-12-18T05:25:21;102527.31;;;20.45;33.93
55187;BME280;55457;52.002;5.464;2022-12-18T05:27:46;102531.91;;;20.44;34.16
55187;BME280;55457;52.002;5.464;2022-12-18T05:30:12;102536.50;;;20.44;34.08
55187;BME280;55457;52.002;5.464;2022-12-18T05:32:38;102540.25;;;20.43;33.98
55187;BME280;55457;52.002;5.464;2022-12-18T05:35:06;102538.38;;;20.43;34.03
55187;BME280;55457;52.002;5.464;2022-12-18T05:37:32;102526.91;;;20.41;34.06
55187;BME280;55457;52.002;5.464;2022-12-18T05:39:58;102530.25;;;20.43;33.94
55187;BME280;55457;52.002;5.464;2022-12-18T05:42:23;102529.41;;;20.43;33.77
55187;BME280;55457;52.002;5.464;2022-12-18T05:44:48;102525.88;;;20.42;33.92
55187;BME280;55457;52.002;5.464;2022-12-18T05:47:14;102516.91;;;20.42;34.01
55187;BME280;55457;52.002;5.464;2022-12-18T05:49:39;102512.50;;;20.41;34.16
55187;BME280;55457;52.002;5.464;2022-12-18T05:52:04;102514.38;;;20.40;34.03
55187;BME280;55457;52.002;5.464;2022-12-18T05:54:30;102517.94;;;20.41;34.11
55187;BME280;55457;52.002;5.464;2022-12-18T05:56:56;102510.66;;;20.41;34.01
55187;BME280;55457;52.002;5.464;2022-12-18T05:59:21;102499.84;;;20.41;33.95
55187;BME280;55457;52.002;5.464;2022-12-18T06:01:46;102499.84;;;20.41;34.02
55187;BME280;55457;52.002;5.464;2022-12-18T06:04:12;102497.13;;;20.41;33.98
55187;BME280;55457;52.002;5.464;2022-12-18T06:06:37;102489.84;;;20.42;33.96
55187;BME280;55457;52.002;5.464;2022-12-18T06:09:03;102490.66;;;20.42;33.83
55187;BME280;55457;52.002;5.464;2022-12-18T06:11:34;102481.72;;;20.42;33.89
55187;BME280;55457;52.002;5.464;2022-12-18T06:14:00;102488.56;;;20.44;33.75
55187;BME280;55457;52.002;5.464;2022-12-18T06:16:27;102476.69;;;20.45;33.90
55187;BME280;55457;52.002;5.464;2022-12-18T06:18:56;102474.81;;;20.46;33.93
55187;BME280;55457;52.002;5.464;2022-12-18T06:21:21;102475.69;;;20.46;33.68
55187;BME280;55457;52.002;5.464;2022-12-18T06:23:46;102469.41;;;20.46;33.90
55187;BME280;55457;52.002;5.464;2022-12-18T06:26:13;102474.81;;;20.46;33.82
55187;BME280;55457;52.002;5.464;2022-12-18T06:28:38;102471.13;;;20.47;33.56
55187;BME280;55457;52.002;5.464;2022-12-18T06:31:04;102481.09;;;20.46;33.65
55187;BME280;55457;52.002;5.464;2022-12-18T06:33:30;102478.41;;;20.46;33.72
55187;BME280;55457;52.002;5.464;2022-12-18T06:36:09;102476.56;;;20.47;33.90
55187;BME280;55457;52.002;5.464;2022-12-18T06:38:38;102472.97;;;20.46;33.73
55187;BME280;55457;52.002;5.464;2022-12-18T06:41:08;102471.13;;;20.47;33.92
55187;BME280;55457;52.002;5.464;2022-12-18T06:43:33;102454.88;;;20.47;33.90
55187;BME280;55457;52.002;5.464;2022-12-18T06:45:59;102454.03;;;20.46;33.76
55187;BME280;55457;52.002;5.464;2022-12-18T06:48:25;102454.03;;;20.46;33.46
55187;BME280;55457;52.002;5.464;2022-12-18T06:50:50;102446.91;;;20.45;33.83
55187;BME280;55457;52.002;5.464;2022-12-18T06:53:16;102449.63;;;20.45;33.56
55187;BME280;55457;52.002;5.464;2022-12-18T06:55:41;102446.91;;;20.45;33.56
55187;BME280;55457;52.002;5.464;2022-12-18T06:58:06;102434.41;;;20.44;33.77
55187;BME280;55457;52.002;5.464;2022-12-18T07:00:31;102429.84;;;20.45;33.65
55187;BME280;55457;52.002;5.464;2022-12-18T07:02:57;102434.41;;;20.44;33.94
55187;BME280;55457;52.002;5.464;2022-12-18T07:05:22;102439.84;;;20.44;33.67
55187;BME280;55457;52.002;5.464;2022-12-18T07:07:48;102439.84;;;20.44;33.66
55187;BME280;55457;52.002;5.464;2022-12-18T07:10:13;102433.59;;;20.44;33.73
55187;BME280;55457;52.002;5.464;2022-12-18T07:12:38;102421.09;;;20.43;33.71
55187;BME280;55457;52.002;5.464;2022-12-18T07:15:04;102421.91;;;20.43;33.68
55187;BME280;55457;52.002;5.464;2022-12-18T07:17:30;102416.50;;;20.43;33.97
55187;BME280;55457;52.002;5.464;2022-12-18T07:19:55;102410.25;;;20.43;33.63
55187;BME280;55457;52.002;5.464;2022-12-18T07:22:21;102414.84;;;20.42;33.68
55187;BME280;55457;52.002;5.464;2022-12-18T07:24:46;102416.50;;;20.43;33.53
55187;BME280;55457;52.002;5.464;2022-12-18T07:27:11;102412.13;;;20.42;33.67
55187;BME280;55457;52.002;5.464;2022-12-18T07:29:37;102414.84;;;20.42;33.69
55187;BME280;55457;52.002;5.464;2022-12-18T07:32:02;102414.84;;;20.42;33.34
55187;BME280;55457;52.002;5.464;2022-12-18T07:34:27;102416.50;;;20.43;33.59
55187;BME280;55457;52.002;5.464;2022-12-18T07:36:53;102404.84;;;20.43;33.54
55187;BME280;55457;52.002;5.464;2022-12-18T07:39:18;102386.72;;;20.43;33.63
55187;BME280;55457;52.002;5.464;2022-12-18T07:41:43;102381.31;;;20.43;33.67
55187;BME280;55457;52.002;5.464;2022-12-18T07:44:28;102372.34;;;20.43;33.61
55187;BME280;55457;52.002;5.464;2022-12-18T07:46:54;102374.84;;;20.44;33.54
55187;BME280;55457;52.002;5.464;2022-12-18T07:49:19;102372.34;;;20.43;33.47
55187;BME280;55457;52.002;5.464;2022-12-18T07:51:44;102370.69;;;20.42;33.53
55187;BME280;55457;52.002;5.464;2022-12-18T07:54:14;102355.28;;;20.42;33.50
55187;BME280;55457;52.002;5.464;2022-12-18T07:56:39;102359.63;;;20.43;33.45
55187;BME280;55457;52.002;5.464;2022-12-18T07:59:04;102362.34;;;20.43;33.50
55187;BME280;55457;52.002;5.464;2022-12-18T08:01:30;102362.34;;;20.43;33.57
55187;BME280;55457;52.002;5.464;2022-12-18T08:03:55;102369.44;;;20.44;33.56
55187;BME280;55457;52.002;5.464;2022-12-18T08:06:20;102357.75;;;20.44;33.52
55187;BME280;55457;52.002;5.464;2022-12-18T08:08:46;102352.34;;;20.44;33.76
55187;BME280;55457;52.002;5.464;2022-12-18T08:11:11;102354.22;;;20.43;33.52
55187;BME280;55457;52.002;5.464;2022-12-18T08:13:36;102362.34;;;20.43;33.56
55187;BME280;55457;52.002;5.464;2022-12-18T08:16:05;102355.28;;;20.42;33.60
55187;BME280;55457;52.002;5.464;2022-12-18T08:18:33;102364.00;;;20.44;33.47
55187;BME280;55457;52.002;5.464;2022-12-18T08:23:35;102378.59;;;20.43;33.46
55187;BME280;55457;52.002;5.464;2022-12-18T08:26:01;102384.00;;;20.43;33.62
55187;BME280;55457;52.002;5.464;2022-12-18T08:28:26;102387.75;;;20.42;33.35
55187;BME280;55457;52.002;5.464;2022-12-18T08:30:52;102394.84;;;20.43;33.55
55187;BME280;55457;52.002;5.464;2022-12-18T08:33:17;102389.44;;;20.43;33.47
55187;BME280;55457;52.002;5.464;2022-12-18T08:35:43;102389.44;;;20.43;33.49
55187;BME280;55457;52.002;5.464;2022-12-18T08:38:08;102386.72;;;20.43;33.52
55187;BME280;55457;52.002;5.464;2022-12-18T08:40:33;102389.44;;;20.43;33.66
55187;BME280;55457;52.002;5.464;2022-12-18T08:42:58;102388.59;;;20.43;33.30
55187;BME280;55457;52.002;5.464;2022-12-18T08:45:42;102380.25;;;20.44;33.63
55187;BME280;55457;52.002;5.464;2022-12-18T08:48:07;102375.06;;;20.43;33.66
55187;BME280;55457;52.002;5.464;2022-12-18T08:50:33;102366.94;;;20.43;33.84
55187;BME280;55457;52.002;5.464;2022-12-18T08:52:58;102357.97;;;20.42;34.17
55187;BME280;55457;52.002;5.464;2022-12-18T08:55:23;102371.53;;;20.42;34.12
55187;BME280;55457;52.002;5.464;2022-12-18T08:57:50;102374.22;;;20.42;34.10
55187;BME280;55457;52.002;5.464;2022-12-18T09:00:15;102379.00;;;20.40;34.20
55187;BME280;55457;52.002;5.464;2022-12-18T09:02:40;102365.25;;;20.35;34.08
55187;BME280;55457;52.002;5.464;2022-12-18T09:05:06;102366.72;;;20.31;34.53
55187;BME280;55457;52.002;5.464;2022-12-18T09:07:31;102362.75;;;20.27;34.52
55187;BME280;55457;52.002;5.464;2022-12-18T09:09:57;102361.09;;;20.26;34.52
55187;BME280;55457;52.002;5.464;2022-12-18T09:12:22;102373.56;;;20.27;34.45
55187;BME280;55457;52.002;5.464;2022-12-18T09:14:47;102377.94;;;20.28;34.41
55187;BME280;55457;52.002;5.464;2022-12-18T09:17:13;102382.31;;;20.29;34.35
55187;BME280;55457;52.002;5.464;2022-12-18T09:19:38;102381.28;;;20.30;34.50
55187;BME280;55457;52.002;5.464;2022-12-18T09:22:03;102376.91;;;20.29;34.45
55187;BME280;55457;52.002;5.464;2022-12-18T09:24:29;102371.47;;;20.29;34.39
55187;BME280;55457;52.002;5.464;2022-12-18T09:26:54;102381.09;;;20.31;34.23
55187;BME280;55457;52.002;5.464;2022-12-18T09:29:20;102378.78;;;20.35;34.18
55187;BME280;55457;52.002;5.464;2022-12-18T09:31:45;102378.16;;;20.40;34.26
55187;BME280;55457;52.002;5.464;2022-12-18T09:34:10;102365.06;;;20.43;34.37
55187;BME280;55457;52.002;5.464;2022-12-18T09:36:36;102353.63;;;20.48;34.16
55187;BME280;55457;52.002;5.464;2022-12-18T09:39:02;102351.97;;;20.47;34.15
55187;BME280;55457;52.002;5.464;2022-12-18T09:41:40;102355.66;;;20.46;34.24
55187;BME280;55457;52.002;5.464;2022-12-18T09:46:45;102334.66;;;20.41;34.24
55187;BME280;55457;52.002;5.464;2022-12-18T09:49:16;102330.47;;;20.39;34.38
55187;BME280;55457;52.002;5.464;2022-12-18T09:51:46;102333.78;;;20.34;34.45
55187;BME280;55457;52.002;5.464;2022-12-18T09:54:18;102341.09;;;20.33;34.57
55187;BME280;55457;52.002;5.464;2022-12-18T09:56:45;102334.84;;;20.33;34.47
55187;BME280;55457;52.002;5.464;2022-12-18T09:59:35;102334.84;;;20.33;34.45
55187;BME280;55457;52.002;5.464;2022-12-18T10:02:15;102327.78;;;20.32;34.60
55187;BME280;55457;52.002;5.464;2022-12-18T10:04:41;102330.47;;;20.32;34.64
55187;BME280;55457;52.002;5.464;2022-12-18T10:07:15;102331.53;;;20.31;34.92
55187;BME280;55457;52.002;5.464;2022-12-18T10:10:34;102323.41;;;20.31;34.68
55187;BME280;55457;52.002;5.464;2022-12-18T10:13:23;102313.59;;;20.30;34.58
55187;BME280;55457;52.002;5.464;2022-12-18T10:19:00;102326.50;;;20.28;34.43
55187;BME280;55457;52.002;5.464;2022-12-18T10:24:30;102321.09;;;20.28;34.41
55187;BME280;55457;52.002;5.464;2022-12-18T10:27:17;102319.66;;;20.32;34.26
55187;BME280;55457;52.002;5.464;2022-12-18T10:29:44;102321.72;;;20.37;34.24
55187;BME280;55457;52.002;5.464;2022-12-18T10:32:17;102324.00;;;20.40;34.20
55187;BME280;55457;52.002;5.464;2022-12-18T10:34:47;102304.44;;;20.38;34.40
55187;BME280;55457;52.002;5.464;2022-12-18T10:37:16;102308.59;;;20.33;34.28
55187;BME280;55457;52.002;5.464;2022-12-18T10:39:42;102300.69;;;20.32;34.30
55187;BME280;55457;52.002;5.464;2022-12-18T10:42:17;102301.09;;;20.29;34.25
55187;BME280;55457;52.002;5.464;2022-12-18T10:44:43;102292.34;;;20.27;34.14
55187;BME280;55457;52.002;5.464;2022-12-18T10:47:14;102289.00;;;20.25;34.12
55187;BME280;55457;52.002;5.464;2022-12-18T10:49:47;102281.94;;;20.24;34.31
55187;BME280;55457;52.002;5.464;2022-12-18T10:54:51;102275.06;;;20.21;34.32
55187;BME280;55457;52.002;5.464;2022-12-18T10:59:57;102273.59;;;20.19;34.35
55187;BME280;55457;52.002;5.464;2022-12-18T11:02:37;102265.47;;;20.19;34.28
55187;BME280;55457;52.002;5.464;2022-12-18T11:05:23;102265.69;;;20.17;34.29
55187;BME280;55457;52.002;5.464;2022-12-18T11:07:50;102266.53;;;20.18;34.06
55187;BME280;55457;52.002;5.464;2022-12-18T11:10:20;102265.69;;;20.17;34.25
55187;BME280;55457;52.002;5.464;2022-12-18T11:12:47;102264.88;;;20.17;34.40
55187;BME280;55457;52.002;5.464;2022-12-18T11:15:19;102259.25;;;20.18;34.22
55187;BME280;55457;52.002;5.464;2022-12-18T11:17:48;102244.47;;;20.21;34.25
55187;BME280;55457;52.002;5.464;2022-12-18T11:20:31;102246.34;;;20.27;34.28
55187;BME280;55457;52.002;5.464;2022-12-18T11:23:00;102240.31;;;20.31;34.09
55187;BME280;55457;52.002;5.464;2022-12-18T11:25:26;102235.72;;;20.32;34.07
55187;BME280;55457;52.002;5.464;2022-12-18T11:27:56;102238.81;;;20.29;34.10
55187;BME280;55457;52.002;5.464;2022-12-18T11:30:27;102243.63;;;20.27;34.15
55187;BME280;55457;52.002;5.464;2022-12-18T11:32:56;102245.69;;;20.25;34.36
55187;BME280;55457;52.002;5.464;2022-12-18T11:35:49;102241.53;;;20.22;34.25
55187;BME280;55457;52.002;5.464;2022-12-18T11:38:25;102240.72;;;20.22;34.27
55187;BME280;55457;52.002;5.464;2022-12-18T11:40:56;102239.06;;;20.21;34.27
55187;BME280;55457;52.002;5.464;2022-12-18T11:43:31;102235.72;;;20.19;34.27
55187;BME280;55457;52.002;5.464;2022-12-18T11:46:27;102239.47;;;20.18;34.20
55187;BME280;55457;52.002;5.464;2022-12-18T11:49:05;102233.22;;;20.17;34.08
55187;BME280;55457;52.002;5.464;2022-12-18T11:51:41;102225.31;;;20.16;34.19
55187;BME280;55457;52.002;5.464;2022-12-18T11:54:15;102229.91;;;20.15;34.17
55187;BME280;55457;52.002;5.464;2022-12-18T11:56:48;102226.34;;;20.15;34.20
55187;BME280;55457;52.002;5.464;2022-12-18T12:04:55;102205.72;;;20.14;34.16
55187;BME280;55457;52.002;5.464;2022-12-18T12:21:09;102169.91;;;20.25;34.03
55187;BME280;55457;52.002;5.464;2022-12-18T12:24:03;102167.41;;;20.23;34.18
55187;BME280;55457;52.002;5.464;2022-12-18T12:26:40;102174.69;;;20.23;34.21
55187;BME280;55457;52.002;5.464;2022-12-18T12:34:50;102151.38;;;20.22;33.89
55187;BME280;55457;52.002;5.464;2022-12-18T12:40:24;102139.50;;;20.23;34.20
55187;BME280;55457;52.002;5.464;2022-12-18T12:42:58;102136.19;;;20.21;34.27
55187;BME280;55457;52.002;5.464;2022-12-18T12:45:55;102134.09;;;20.23;34.32
55187;BME280;55457;52.002;5.464;2022-12-18T12:48:50;102126.59;;;20.25;34.50
55187;BME280;55457;52.002;5.464;2022-12-18T12:51:37;102128.47;;;20.24;34.39
55187;BME280;55457;52.002;5.464;2022-12-18T12:54:09;102133.69;;;20.26;34.49
55187;BME280;55457;52.002;5.464;2022-12-18T12:56:51;102123.25;;;20.29;34.35
55187;BME280;55457;52.002;5.464;2022-12-18T13:02:22;102117.84;;;20.36;34.19
55187;BME280;55457;52.002;5.464;2022-12-18T13:07:29;102115.75;;;20.38;34.18
55187;BME280;55457;52.002;5.464;2022-12-18T13:13:00;102115.97;;;20.37;34.13
55187;BME280;55457;52.002;5.464;2022-12-18T13:16:05;102119.91;;;20.34;33.99
55187;BME280;55457;52.002;5.464;2022-12-18T13:18:32;102121.38;;;20.30;33.96
55187;BME280;55457;52.002;5.464;2022-12-18T13:25:48;102109.72;;;20.23;33.99
55187;BME280;55457;52.002;5.464;2022-12-18T13:28:15;102110.34;;;20.25;34.12
55187;BME280;55457;52.002;5.464;2022-12-18T13:35:40;102101.19;;;20.26;34.12
55187;BME280;55457;52.002;5.464;2022-12-18T13:38:23;102096.81;;;20.25;34.10
55187;BME280;55457;52.002;5.464;2022-12-18T13:45:45;102088.66;;;20.38;33.91
55187;BME280;55457;52.002;5.464;2022-12-18T13:48:23;102079.06;;;20.42;33.88
55187;BME280;55457;52.002;5.464;2022-12-18T13:51:01;102062.81;;;20.42;33.91
55187;BME280;55457;52.002;5.464;2022-12-18T13:53:47;102071.78;;;20.43;33.92
55187;BME280;55457;52.002;5.464;2022-12-18T13:56:23;102066.59;;;20.41;33.75
55187;BME280;55457;52.002;5.464;2022-12-18T14:01:54;102051.59;;;20.39;34.02
55187;BME280;55457;52.002;5.464;2022-12-18T14:04:34;102057.00;;;20.39;34.04
55187;BME280;55457;52.002;5.464;2022-12-18T14:07:06;102048.03;;;20.38;33.90
55187;BME280;55457;52.002;5.464;2022-12-18T14:09:39;102038.28;;;20.37;34.11
55187;BME280;55457;52.002;5.464;2022-12-18T14:12:06;102039.09;;;20.38;33.94
55187;BME280;55457;52.002;5.464;2022-12-18T14:14:51;102033.69;;;20.38;33.77
55187;BME280;55457;52.002;5.464;2022-12-18T14:17:18;102030.16;;;20.37;34.08
55187;BME280;55457;52.002;5.464;2022-12-18T14:19:46;102033.47;;;20.39;33.98
55187;BME280;55457;52.002;5.464;2022-12-18T14:22:21;102031.81;;;20.38;34.05
55187;BME280;55457;52.002;5.464;2022-12-18T14:24:47;102036.16;;;20.39;34.05
55187;BME280;55457;52.002;5.464;2022-12-18T14:27:29;102027.81;;;20.41;34.11
55187;BME280;55457;52.002;5.464;2022-12-18T14:29:54;102024.31;;;20.47;34.17
55187;BME280;55457;52.002;5.464;2022-12-18T14:32:20;102018.66;;;20.48;34.19
55187;BME280;55457;52.002;5.464;2022-12-18T14:34:52;102014.50;;;20.52;33.76
55187;BME280;55457;52.002;5.464;2022-12-18T14:37:24;102010.72;;;20.53;33.90
55187;BME280;55457;52.002;5.464;2022-12-18T14:39:54;101997.41;;;20.52;33.97
55187;BME280;55457;52.002;5.464;2022-12-18T14:42:20;102009.06;;;20.52;33.90
55187;BME280;55457;52.002;5.464;2022-12-18T14:44:45;102005.53;;;20.52;33.93
55187;BME280;55457;52.002;5.464;2022-12-18T14:47:15;101998.25;;;20.52;33.99
55187;BME280;55457;52.002;5.464;2022-12-18T14:49:41;102006.38;;;20.52;34.03